sensor_id;sensor_type;location;lat;lon;timestamp;temperature;humidity
8707;DHT22;4390;49.302;9.306;2023-06-22T00:01:19;23.10;92.60
8707;DHT22;4390;49.302;9.306;2023-06-22T00:03:46;23.20;92.90
8707;DHT22;4390;49.302;9.306;2023-06-22T00:06:13;23.10;93.20
8707;DHT22;4390;49.302;9.306;2023-06-22T00:08:40;23.10;93.30
8707;DHT22;4390;49.302;9.306;2023-06-22T00:11:07;23.10;93.20
8707;DHT22;4390;49.302;9.306;2023-06-22T00:13:34;23.00;93.30
8707;DHT22;4390;49.302;9.306;2023-06-22T00:16:01;23.00;93.40
8707;DHT22;4390;49.302;9.306;2023-06-22T00:18:27;23.00;93.40
8707;DHT22;4390;49.302;9.306;2023-06-22T00:20:58;22.80;93.50
8707;DHT22;4390;49.302;9.306;2023-06-22T00:23:26;22.70;93.70
8707;DHT22;4390;49.302;9.306;2023-06-22T00:25:53;22.70;93.80
8707;DHT22;4390;49.302;9.306;2023-06-22T00:28:20;22.70;93.80
8707;DHT22;4390;49.302;9.306;2023-06-22T00:30:49;22.80;93.60
8707;DHT22;4390;49.302;9.306;2023-06-22T00:33:17;22.80;93.50
8707;DHT22;4390;49.302;9.306;2023-06-22T00:35:44;22.80;93.50
8707;DHT22;4390;49.302;9.306;2023-06-22T00:38:11;22.80;93.50
8707;DHT22;4390;49.302;9.306;2023-06-22T00:40:38;22.70;93.50
8707;DHT22;4390;49.302;9.306;2023-06-22T00:43:05;22.70;93.40
8707;DHT22;4390;49.302;9.306;2023-06-22T00:45:33;22.70;93.50
8707;DHT22;4390;49.302;9.306;2023-06-22T00:48:00;22.60;93.40
8707;DHT22;4390;49.302;9.306;2023-06-22T00:50:29;22.60;93.60
8707;DHT22;4390;49.302;9.306;2023-06-22T00:53:03;22.60;93.70
8707;DHT22;4390;49.302;9.306;2023-06-22T00:55:37;22.60;93.70
8707;DHT22;4390;49.302;9.306;2023-06-22T00:58:04;22.60;93.70
8707;DHT22;4390;49.302;9.306;2023-06-22T01:00:34;22.60;93.60
8707;DHT22;4390;49.302;9.306;2023-06-22T01:03:02;22.60;93.50
8707;DHT22;4390;49.302;9.306;2023-06-22T01:05:31;22.60;93.50
8707;DHT22;4390;49.302;9.306;2023-06-22T01:10:44;22.60;93.30
8707;DHT22;4390;49.302;9.306;2023-06-22T01:13:28;22.60;93.30
8707;DHT22;4390;49.302;9.306;2023-06-22T01:16:05;22.50;93.40
8707;DHT22;4390;49.302;9.306;2023-06-22T01:18:35;22.40;93.60
8707;DHT22;4390;49.302;9.306;2023-06-22T01:21:06;22.30;93.90
8707;DHT22;4390;49.302;9.306;2023-06-22T01:26:57;22.30;93.40
8707;DHT22;4390;49.302;9.306;2023-06-22T01:29:27;22.40;93.30
8707;DHT22;4390;49.302;9.306;2023-06-22T01:31:56;22.50;92.90
8707;DHT22;4390;49.302;9.306;2023-06-22T01:34:24;22.70;92.60
8707;DHT22;4390;49.302;9.306;2023-06-22T01:36:52;22.80;92.50
8707;DHT22;4390;49.302;9.306;2023-06-22T01:39:20;22.90;92.50
8707;DHT22;4390;49.302;9.306;2023-06-22T01:41:48;22.90;92.60
8707;DHT22;4390;49.302;9.306;2023-06-22T01:44:16;22.90;92.70
8707;DHT22;4390;49.302;9.306;2023-06-22T01:46:43;23.00;92.60
8707;DHT22;4390;49.302;9.306;2023-06-22T01:49:10;22.90;93.20
8707;DHT22;4390;49.302;9.306;2023-06-22T01:51:37;22.90;93.30
8707;DHT22;4390;49.302;9.306;2023-06-22T01:54:06;22.80;93.40
8707;DHT22;4390;49.302;9.306;2023-06-22T01:56:33;22.90;93.10
8707;DHT22;4390;49.302;9.306;2023-06-22T01:59:17;23.00;93.00
8707;DHT22;4390;49.302;9.306;2023-06-22T02:01:59;22.90;93.20
8707;DHT22;4390;49.302;9.306;2023-06-22T02:04:41;22.90;93.30
8707;DHT22;4390;49.302;9.306;2023-06-22T02:07:14;22.80;93.30
8707;DHT22;4390;49.302;9.306;2023-06-22T02:09:45;22.80;93.60
8707;DHT22;4390;49.302;9.306;2023-06-22T02:12:16;22.70;93.60
8707;DHT22;4390;49.302;9.306;2023-06-22T02:14:44;22.70;93.70
8707;DHT22;4390;49.302;9.306;2023-06-22T02:17:13;22.70;93.80
8707;DHT22;4390;49.302;9.306;2023-06-22T02:19:43;22.80;93.60
8707;DHT22;4390;49.302;9.306;2023-06-22T02:22:09;22.80;93.40
8707;DHT22;4390;49.302;9.306;2023-06-22T02:24:36;22.80;93.60
8707;DHT22;4390;49.302;9.306;2023-06-22T02:27:03;22.80;93.80
8707;DHT22;4390;49.302;9.306;2023-06-22T02:29:32;22.80;93.90
8707;DHT22;4390;49.302;9.306;2023-06-22T02:32:01;22.80;93.90
8707;DHT22;4390;49.302;9.306;2023-06-22T02:34:28;22.80;94.00
8707;DHT22;4390;49.302;9.306;2023-06-22T02:36:55;22.80;94.00
8707;DHT22;4390;49.302;9.306;2023-06-22T02:39:23;22.80;94.00
8707;DHT22;4390;49.302;9.306;2023-06-22T02:41:52;22.70;94.00
8707;DHT22;4390;49.302;9.306;2023-06-22T02:44:19;22.70;93.90
8707;DHT22;4390;49.302;9.306;2023-06-22T02:46:48;22.70;93.90
8707;DHT22;4390;49.302;9.306;2023-06-22T02:49:15;22.70;93.90
8707;DHT22;4390;49.302;9.306;2023-06-22T02:51:46;22.70;93.80
8707;DHT22;4390;49.302;9.306;2023-06-22T02:54:15;22.70;93.70
8707;DHT22;4390;49.302;9.306;2023-06-22T02:56:44;22.70;93.80
8707;DHT22;4390;49.302;9.306;2023-06-22T02:59:11;22.70;93.70
8707;DHT22;4390;49.302;9.306;2023-06-22T03:01:38;22.70;93.60
8707;DHT22;4390;49.302;9.306;2023-06-22T03:04:18;22.70;93.70
8707;DHT22;4390;49.302;9.306;2023-06-22T03:06:45;22.70;93.60
8707;DHT22;4390;49.302;9.306;2023-06-22T03:09:18;22.70;93.60
8707;DHT22;4390;49.302;9.306;2023-06-22T03:11:45;22.70;93.80
8707;DHT22;4390;49.302;9.306;2023-06-22T03:14:11;22.70;93.70
8707;DHT22;4390;49.302;9.306;2023-06-22T03:16:39;22.70;93.70
8707;DHT22;4390;49.302;9.306;2023-06-22T03:19:07;22.70;93.70
8707;DHT22;4390;49.302;9.306;2023-06-22T03:21:33;22.60;93.70
8707;DHT22;4390;49.302;9.306;2023-06-22T03:24:00;22.60;93.70
8707;DHT22;4390;49.302;9.306;2023-06-22T03:26:27;22.60;93.80
8707;DHT22;4390;49.302;9.306;2023-06-22T03:28:54;22.60;93.70
8707;DHT22;4390;49.302;9.306;2023-06-22T03:31:21;22.60;93.70
8707;DHT22;4390;49.302;9.306;2023-06-22T03:33:49;22.60;93.70
8707;DHT22;4390;49.302;9.306;2023-06-22T03:36:17;22.60;93.50
8707;DHT22;4390;49.302;9.306;2023-06-22T03:38:48;22.60;93.20
8707;DHT22;4390;49.302;9.306;2023-06-22T03:41:16;22.60;93.40
8707;DHT22;4390;49.302;9.306;2023-06-22T03:43:43;22.60;93.50
8707;DHT22;4390;49.302;9.306;2023-06-22T03:46:10;22.60;93.30
8707;DHT22;4390;49.302;9.306;2023-06-22T03:48:37;22.60;93.30
8707;DHT22;4390;49.302;9.306;2023-06-22T03:51:04;22.60;93.40
8707;DHT22;4390;49.302;9.306;2023-06-22T03:53:31;22.60;93.40
8707;DHT22;4390;49.302;9.306;2023-06-22T03:55:58;22.60;93.40
8707;DHT22;4390;49.302;9.306;2023-06-22T03:58:24;22.60;93.30
8707;DHT22;4390;49.302;9.306;2023-06-22T04:00:52;22.70;93.30
8707;DHT22;4390;49.302;9.306;2023-06-22T04:03:19;22.70;93.20
8707;DHT22;4390;49.302;9.306;2023-06-22T04:05:47;22.70;93.20
8707;DHT22;4390;49.302;9.306;2023-06-22T04:08:15;22.70;93.20
8707;DHT22;4390;49.302;9.306;2023-06-22T04:10:42;22.70;93.20
8707;DHT22;4390;49.302;9.306;2023-06-22T04:13:09;22.70;93.20
8707;DHT22;4390;49.302;9.306;2023-06-22T04:15:36;22.60;93.30
8707;DHT22;4390;49.302;9.306;2023-06-22T04:18:02;22.60;93.20
8707;DHT22;4390;49.302;9.306;2023-06-22T04:20:31;22.60;93.20
8707;DHT22;4390;49.302;9.306;2023-06-22T04:22:59;22.60;93.30
8707;DHT22;4390;49.302;9.306;2023-06-22T04:25:26;22.60;93.30
8707;DHT22;4390;49.302;9.306;2023-06-22T04:27:53;22.60;93.40
8707;DHT22;4390;49.302;9.306;2023-06-22T04:30:19;22.60;93.40
8707;DHT22;4390;49.302;9.306;2023-06-22T04:32:46;22.60;93.40
8707;DHT22;4390;49.302;9.306;2023-06-22T04:35:25;22.60;93.30
8707;DHT22;4390;49.302;9.306;2023-06-22T04:37:53;22.60;93.40
8707;DHT22;4390;49.302;9.306;2023-06-22T04:40:22;22.60;93.40
8707;DHT22;4390;49.302;9.306;2023-06-22T04:42:49;22.60;93.50
8707;DHT22;4390;49.302;9.306;2023-06-22T04:45:20;22.60;93.50
8707;DHT22;4390;49.302;9.306;2023-06-22T04:47:47;22.60;93.50
8707;DHT22;4390;49.302;9.306;2023-06-22T04:50:15;22.60;93.70
8707;DHT22;4390;49.302;9.306;2023-06-22T04:52:42;22.60;93.80
8707;DHT22;4390;49.302;9.306;2023-06-22T04:55:09;22.50;93.80
8707;DHT22;4390;49.302;9.306;2023-06-22T04:57:35;22.60;93.80
8707;DHT22;4390;49.302;9.306;2023-06-22T05:00:06;22.50;94.00
8707;DHT22;4390;49.302;9.306;2023-06-22T05:02:39;22.50;94.00
8707;DHT22;4390;49.302;9.306;2023-06-22T05:05:06;22.50;94.20
8707;DHT22;4390;49.302;9.306;2023-06-22T05:07:34;22.60;94.00
8707;DHT22;4390;49.302;9.306;2023-06-22T05:10:02;22.60;94.00
8707;DHT22;4390;49.302;9.306;2023-06-22T05:12:30;22.60;94.10
8707;DHT22;4390;49.302;9.306;2023-06-22T05:14:57;22.60;94.20
8707;DHT22;4390;49.302;9.306;2023-06-22T05:17:24;22.70;94.00
8707;DHT22;4390;49.302;9.306;2023-06-22T05:19:51;22.70;93.60
8707;DHT22;4390;49.302;9.306;2023-06-22T05:22:19;22.80;93.40
8707;DHT22;4390;49.302;9.306;2023-06-22T05:24:46;22.90;93.20
8707;DHT22;4390;49.302;9.306;2023-06-22T05:27:13;22.90;93.10
8707;DHT22;4390;49.302;9.306;2023-06-22T05:29:40;23.00;93.10
8707;DHT22;4390;49.302;9.306;2023-06-22T05:32:07;23.00;93.10
8707;DHT22;4390;49.302;9.306;2023-06-22T05:34:34;23.00;93.10
8707;DHT22;4390;49.302;9.306;2023-06-22T05:37:02;23.00;92.90
8707;DHT22;4390;49.302;9.306;2023-06-22T05:39:29;23.00;92.90
8707;DHT22;4390;49.302;9.306;2023-06-22T05:41:55;23.00;92.90
8707;DHT22;4390;49.302;9.306;2023-06-22T05:44:22;23.10;92.80
8707;DHT22;4390;49.302;9.306;2023-06-22T05:46:49;23.10;92.70
8707;DHT22;4390;49.302;9.306;2023-06-22T05:49:16;23.10;92.60
8707;DHT22;4390;49.302;9.306;2023-06-22T05:51:43;23.10;92.60
8707;DHT22;4390;49.302;9.306;2023-06-22T05:54:10;23.20;92.60
8707;DHT22;4390;49.302;9.306;2023-06-22T05:56:37;23.20;92.60
8707;DHT22;4390;49.302;9.306;2023-06-22T05:59:04;23.20;92.40
8707;DHT22;4390;49.302;9.306;2023-06-22T06:01:30;23.20;92.40
8707;DHT22;4390;49.302;9.306;2023-06-22T06:04:03;23.20;92.30
8707;DHT22;4390;49.302;9.306;2023-06-22T06:06:31;23.20;92.20
8707;DHT22;4390;49.302;9.306;2023-06-22T06:08:58;23.20;92.00
8707;DHT22;4390;49.302;9.306;2023-06-22T06:11:26;23.30;92.00
8707;DHT22;4390;49.302;9.306;2023-06-22T06:13:53;23.30;92.00
8707;DHT22;4390;49.302;9.306;2023-06-22T06:16:19;23.30;92.00
8707;DHT22;4390;49.302;9.306;2023-06-22T06:18:46;23.30;92.10
8707;DHT22;4390;49.302;9.306;2023-06-22T06:21:15;23.30;92.00
8707;DHT22;4390;49.302;9.306;2023-06-22T06:23:41;23.30;91.90
8707;DHT22;4390;49.302;9.306;2023-06-22T06:26:09;23.30;91.80
8707;DHT22;4390;49.302;9.306;2023-06-22T06:28:36;23.40;91.80
8707;DHT22;4390;49.302;9.306;2023-06-22T06:31:02;23.40;91.80
8707;DHT22;4390;49.302;9.306;2023-06-22T06:33:33;23.40;91.70
8707;DHT22;4390;49.302;9.306;2023-06-22T06:36:00;23.40;91.60
8707;DHT22;4390;49.302;9.306;2023-06-22T06:38:30;23.40;91.70
8707;DHT22;4390;49.302;9.306;2023-06-22T06:40:58;23.50;91.70
8707;DHT22;4390;49.302;9.306;2023-06-22T06:43:25;23.50;91.60
8707;DHT22;4390;49.302;9.306;2023-06-22T06:45:52;23.50;91.50
8707;DHT22;4390;49.302;9.306;2023-06-22T06:48:18;23.50;91.50
8707;DHT22;4390;49.302;9.306;2023-06-22T06:50:45;23.50;91.40
8707;DHT22;4390;49.302;9.306;2023-06-22T06:53:12;23.50;91.60
8707;DHT22;4390;49.302;9.306;2023-06-22T06:55:39;23.60;91.70
8707;DHT22;4390;49.302;9.306;2023-06-22T06:58:06;23.60;91.60
8707;DHT22;4390;49.302;9.306;2023-06-22T07:00:34;23.60;91.50
8707;DHT22;4390;49.302;9.306;2023-06-22T07:03:02;23.60;91.50
8707;DHT22;4390;49.302;9.306;2023-06-22T07:05:29;23.60;91.50
8707;DHT22;4390;49.302;9.306;2023-06-22T07:07:56;23.60;91.60
8707;DHT22;4390;49.302;9.306;2023-06-22T07:10:23;23.60;91.50
8707;DHT22;4390;49.302;9.306;2023-06-22T07:12:50;23.70;91.40
8707;DHT22;4390;49.302;9.306;2023-06-22T07:15:16;23.70;91.40
8707;DHT22;4390;49.302;9.306;2023-06-22T07:17:43;23.70;91.30
8707;DHT22;4390;49.302;9.306;2023-06-22T07:20:11;23.70;91.20
8707;DHT22;4390;49.302;9.306;2023-06-22T07:22:43;23.70;91.20
8707;DHT22;4390;49.302;9.306;2023-06-22T07:25:11;23.70;91.20
8707;DHT22;4390;49.302;9.306;2023-06-22T07:28:02;23.70;91.20
8707;DHT22;4390;49.302;9.306;2023-06-22T07:30:30;23.70;91.10
8707;DHT22;4390;49.302;9.306;2023-06-22T07:32:59;23.70;91.00
8707;DHT22;4390;49.302;9.306;2023-06-22T07:35:30;23.80;90.90
8707;DHT22;4390;49.302;9.306;2023-06-22T07:37:57;23.80;91.00
8707;DHT22;4390;49.302;9.306;2023-06-22T07:40:24;23.80;90.90
8707;DHT22;4390;49.302;9.306;2023-06-22T07:42:50;23.80;90.80
8707;DHT22;4390;49.302;9.306;2023-06-22T07:45:19;23.80;90.80
8707;DHT22;4390;49.302;9.306;2023-06-22T07:47:46;23.80;90.80
8707;DHT22;4390;49.302;9.306;2023-06-22T07:50:12;23.80;90.70
8707;DHT22;4390;49.302;9.306;2023-06-22T07:52:39;23.90;90.80
8707;DHT22;4390;49.302;9.306;2023-06-22T07:55:06;23.90;90.70
8707;DHT22;4390;49.302;9.306;2023-06-22T07:57:33;23.90;90.70
8707;DHT22;4390;49.302;9.306;2023-06-22T08:00:02;23.90;90.80
8707;DHT22;4390;49.302;9.306;2023-06-22T08:02:38;23.90;90.80
8707;DHT22;4390;49.302;9.306;2023-06-22T08:05:05;23.90;90.80
8707;DHT22;4390;49.302;9.306;2023-06-22T08:07:47;23.90;90.80
8707;DHT22;4390;49.302;9.306;2023-06-22T08:10:15;23.90;90.90
8707;DHT22;4390;49.302;9.306;2023-06-22T08:12:42;23.90;90.80
8707;DHT22;4390;49.302;9.306;2023-06-22T08:15:09;23.90;90.80
8707;DHT22;4390;49.302;9.306;2023-06-22T08:17:37;24.00;90.80
8707;DHT22;4390;49.302;9.306;2023-06-22T08:20:06;24.00;90.80
8707;DHT22;4390;49.302;9.306;2023-06-22T08:22:36;24.00;90.90
8707;DHT22;4390;49.302;9.306;2023-06-22T08:25:04;24.00;90.80
8707;DHT22;4390;49.302;9.306;2023-06-22T08:27:30;24.00;90.80
8707;DHT22;4390;49.302;9.306;2023-06-22T08:29:59;24.00;90.90
8707;DHT22;4390;49.302;9.306;2023-06-22T08:32:29;24.00;90.80
8707;DHT22;4390;49.302;9.306;2023-06-22T08:34:57;24.00;90.80
8707;DHT22;4390;49.302;9.306;2023-06-22T08:37:24;24.00;90.80
8707;DHT22;4390;49.302;9.306;2023-06-22T08:39:58;24.00;90.80
8707;DHT22;4390;49.302;9.306;2023-06-22T08:42:25;24.00;90.90
8707;DHT22;4390;49.302;9.306;2023-06-22T08:44:52;24.10;90.90
8707;DHT22;4390;49.302;9.306;2023-06-22T08:47:20;24.10;90.80
8707;DHT22;4390;49.302;9.306;2023-06-22T08:49:48;24.10;90.80
8707;DHT22;4390;49.302;9.306;2023-06-22T08:52:15;24.10;90.80
8707;DHT22;4390;49.302;9.306;2023-06-22T08:54:41;24.10;90.80
8707;DHT22;4390;49.302;9.306;2023-06-22T08:57:08;24.10;90.70
8707;DHT22;4390;49.302;9.306;2023-06-22T08:59:35;24.10;90.70
8707;DHT22;4390;49.302;9.306;2023-06-22T09:02:02;24.10;90.70
8707;DHT22;4390;49.302;9.306;2023-06-22T09:04:28;24.10;90.60
8707;DHT22;4390;49.302;9.306;2023-06-22T09:06:55;24.10;90.80
8707;DHT22;4390;49.302;9.306;2023-06-22T09:09:22;24.10;90.70
8707;DHT22;4390;49.302;9.306;2023-06-22T09:11:49;24.10;90.70
8707;DHT22;4390;49.302;9.306;2023-06-22T09:14:16;24.20;90.60
8707;DHT22;4390;49.302;9.306;2023-06-22T09:16:43;24.20;90.70
8707;DHT22;4390;49.302;9.306;2023-06-22T09:19:10;24.20;90.50
8707;DHT22;4390;49.302;9.306;2023-06-22T09:21:36;24.20;90.20
8707;DHT22;4390;49.302;9.306;2023-06-22T09:24:03;24.30;90.10
8707;DHT22;4390;49.302;9.306;2023-06-22T09:26:30;24.30;90.00
8707;DHT22;4390;49.302;9.306;2023-06-22T09:28:57;24.30;90.00
8707;DHT22;4390;49.302;9.306;2023-06-22T09:31:24;24.30;89.90
8707;DHT22;4390;49.302;9.306;2023-06-22T09:33:54;24.30;89.80
8707;DHT22;4390;49.302;9.306;2023-06-22T09:36:21;24.30;89.60
8707;DHT22;4390;49.302;9.306;2023-06-22T09:38:48;24.30;89.50
8707;DHT22;4390;49.302;9.306;2023-06-22T09:41:22;24.30;89.40
8707;DHT22;4390;49.302;9.306;2023-06-22T09:43:49;24.30;89.50
8707;DHT22;4390;49.302;9.306;2023-06-22T09:46:16;24.30;89.50
8707;DHT22;4390;49.302;9.306;2023-06-22T09:48:43;24.30;89.50
8707;DHT22;4390;49.302;9.306;2023-06-22T09:51:11;24.30;89.40
8707;DHT22;4390;49.302;9.306;2023-06-22T09:53:38;24.30;89.40
8707;DHT22;4390;49.302;9.306;2023-06-22T09:56:05;24.30;89.30
8707;DHT22;4390;49.302;9.306;2023-06-22T09:58:33;24.30;89.30
8707;DHT22;4390;49.302;9.306;2023-06-22T10:00:59;24.30;89.30
8707;DHT22;4390;49.302;9.306;2023-06-22T10:03:26;24.30;89.30
8707;DHT22;4390;49.302;9.306;2023-06-22T10:05:53;24.30;89.30
8707;DHT22;4390;49.302;9.306;2023-06-22T10:08:20;24.30;89.20
8707;DHT22;4390;49.302;9.306;2023-06-22T10:10:47;24.30;89.20
8707;DHT22;4390;49.302;9.306;2023-06-22T10:13:13;24.40;89.20
8707;DHT22;4390;49.302;9.306;2023-06-22T10:15:42;24.40;89.20
8707;DHT22;4390;49.302;9.306;2023-06-22T10:18:09;24.40;89.20
8707;DHT22;4390;49.302;9.306;2023-06-22T10:20:36;24.40;89.20
8707;DHT22;4390;49.302;9.306;2023-06-22T10:23:03;24.40;89.20
8707;DHT22;4390;49.302;9.306;2023-06-22T10:25:29;24.40;89.20
8707;DHT22;4390;49.302;9.306;2023-06-22T10:27:57;24.40;89.20
8707;DHT22;4390;49.302;9.306;2023-06-22T10:30:24;24.40;89.20
8707;DHT22;4390;49.302;9.306;2023-06-22T10:32:50;24.40;89.20
8707;DHT22;4390;49.302;9.306;2023-06-22T10:35:17;24.50;89.10
8707;DHT22;4390;49.302;9.306;2023-06-22T10:37:45;24.50;89.10
8707;DHT22;4390;49.302;9.306;2023-06-22T10:40:18;24.50;89.10
8707;DHT22;4390;49.302;9.306;2023-06-22T10:42:45;24.50;89.10
8707;DHT22;4390;49.302;9.306;2023-06-22T10:45:12;24.50;89.10
8707;DHT22;4390;49.302;9.306;2023-06-22T10:47:38;24.50;89.10
8707;DHT22;4390;49.302;9.306;2023-06-22T10:50:06;24.50;89.10
8707;DHT22;4390;49.302;9.306;2023-06-22T10:52:33;24.50;89.10
8707;DHT22;4390;49.302;9.306;2023-06-22T10:55:00;24.60;89.10
8707;DHT22;4390;49.302;9.306;2023-06-22T10:57:27;24.60;89.10
8707;DHT22;4390;49.302;9.306;2023-06-22T10:59:54;24.60;89.10
8707;DHT22;4390;49.302;9.306;2023-06-22T11:02:20;24.60;89.20
8707;DHT22;4390;49.302;9.306;2023-06-22T11:04:47;24.60;89.20
8707;DHT22;4390;49.302;9.306;2023-06-22T11:07:15;24.70;89.20
8707;DHT22;4390;49.302;9.306;2023-06-22T11:09:45;24.70;89.30
8707;DHT22;4390;49.302;9.306;2023-06-22T11:12:12;24.70;89.40
8707;DHT22;4390;49.302;9.306;2023-06-22T11:14:39;24.70;89.40
8707;DHT22;4390;49.302;9.306;2023-06-22T11:17:06;24.70;89.50
8707;DHT22;4390;49.302;9.306;2023-06-22T11:19:33;24.70;89.50
8707;DHT22;4390;49.302;9.306;2023-06-22T11:22:00;24.70;89.50
8707;DHT22;4390;49.302;9.306;2023-06-22T11:24:26;24.70;89.60
8707;DHT22;4390;49.302;9.306;2023-06-22T11:26:53;24.70;89.60
8707;DHT22;4390;49.302;9.306;2023-06-22T11:29:20;24.70;89.80
8707;DHT22;4390;49.302;9.306;2023-06-22T11:32:02;24.70;89.70
8707;DHT22;4390;49.302;9.306;2023-06-22T11:34:29;24.70;89.70
8707;DHT22;4390;49.302;9.306;2023-06-22T11:36:56;24.70;89.70
8707;DHT22;4390;49.302;9.306;2023-06-22T11:39:23;24.80;89.70
8707;DHT22;4390;49.302;9.306;2023-06-22T11:42:07;24.80;89.60
8707;DHT22;4390;49.302;9.306;2023-06-22T11:44:33;24.80;89.50
8707;DHT22;4390;49.302;9.306;2023-06-22T11:47:00;24.80;89.50
8707;DHT22;4390;49.302;9.306;2023-06-22T11:49:27;24.80;89.50
8707;DHT22;4390;49.302;9.306;2023-06-22T11:51:54;24.80;89.40
8707;DHT22;4390;49.302;9.306;2023-06-22T11:54:21;24.80;89.50
8707;DHT22;4390;49.302;9.306;2023-06-22T11:56:48;24.80;89.40
8707;DHT22;4390;49.302;9.306;2023-06-22T11:59:15;24.80;89.40
8707;DHT22;4390;49.302;9.306;2023-06-22T12:01:41;24.80;89.40
8707;DHT22;4390;49.302;9.306;2023-06-22T12:04:08;24.80;89.40
8707;DHT22;4390;49.302;9.306;2023-06-22T12:06:38;24.80;89.40
8707;DHT22;4390;49.302;9.306;2023-06-22T12:09:09;24.90;89.40
8707;DHT22;4390;49.302;9.306;2023-06-22T12:11:35;24.90;89.40
8707;DHT22;4390;49.302;9.306;2023-06-22T12:14:02;24.90;89.40
8707;DHT22;4390;49.302;9.306;2023-06-22T12:16:29;24.90;89.40
8707;DHT22;4390;49.302;9.306;2023-06-22T12:18:56;24.90;89.40
8707;DHT22;4390;49.302;9.306;2023-06-22T12:21:22;24.90;89.40
8707;DHT22;4390;49.302;9.306;2023-06-22T12:23:49;24.90;89.40
8707;DHT22;4390;49.302;9.306;2023-06-22T12:26:16;24.90;89.50
8707;DHT22;4390;49.302;9.306;2023-06-22T12:28:43;25.00;89.30
8707;DHT22;4390;49.302;9.306;2023-06-22T12:31:10;24.90;89.30
8707;DHT22;4390;49.302;9.306;2023-06-22T12:33:36;24.90;89.40
8707;DHT22;4390;49.302;9.306;2023-06-22T12:36:03;25.00;89.50
8707;DHT22;4390;49.302;9.306;2023-06-22T12:38:31;25.00;89.50
8707;DHT22;4390;49.302;9.306;2023-06-22T12:40:58;25.00;89.60
8707;DHT22;4390;49.302;9.306;2023-06-22T12:43:25;25.00;89.50
8707;DHT22;4390;49.302;9.306;2023-06-22T12:45:51;25.00;89.60
8707;DHT22;4390;49.302;9.306;2023-06-22T12:48:21;25.00;89.50
8707;DHT22;4390;49.302;9.306;2023-06-22T12:50:48;25.00;89.50
8707;DHT22;4390;49.302;9.306;2023-06-22T12:53:14;25.00;89.70
8707;DHT22;4390;49.302;9.306;2023-06-22T12:55:41;25.00;89.70
8707;DHT22;4390;49.302;9.306;2023-06-22T12:58:08;25.00;89.90
8707;DHT22;4390;49.302;9.306;2023-06-22T13:00:35;25.00;90.20
8707;DHT22;4390;49.302;9.306;2023-06-22T13:03:01;25.00;90.50
8707;DHT22;4390;49.302;9.306;2023-06-22T13:05:28;25.00;90.70
8707;DHT22;4390;49.302;9.306;2023-06-22T13:07:55;25.00;90.80
8707;DHT22;4390;49.302;9.306;2023-06-22T13:10:22;25.00;90.60
8707;DHT22;4390;49.302;9.306;2023-06-22T13:12:49;25.00;90.60
8707;DHT22;4390;49.302;9.306;2023-06-22T13:15:16;25.00;90.50
8707;DHT22;4390;49.302;9.306;2023-06-22T13:17:43;25.00;90.50
8707;DHT22;4390;49.302;9.306;2023-06-22T13:20:10;25.00;90.40
8707;DHT22;4390;49.302;9.306;2023-06-22T13:22:37;25.10;90.40
8707;DHT22;4390;49.302;9.306;2023-06-22T13:25:07;25.00;90.50
8707;DHT22;4390;49.302;9.306;2023-06-22T13:27:40;25.10;90.90
8707;DHT22;4390;49.302;9.306;2023-06-22T13:30:08;25.10;91.20
8707;DHT22;4390;49.302;9.306;2023-06-22T13:32:39;25.10;90.80
8707;DHT22;4390;49.302;9.306;2023-06-22T13:35:09;25.10;90.70
8707;DHT22;4390;49.302;9.306;2023-06-22T13:37:36;25.10;90.70
8707;DHT22;4390;49.302;9.306;2023-06-22T13:40:05;25.20;90.70
8707;DHT22;4390;49.302;9.306;2023-06-22T13:42:33;25.20;90.90
8707;DHT22;4390;49.302;9.306;2023-06-22T13:45:00;25.20;90.70
8707;DHT22;4390;49.302;9.306;2023-06-22T13:47:27;25.10;91.00
8707;DHT22;4390;49.302;9.306;2023-06-22T13:49:56;25.10;91.10
8707;DHT22;4390;49.302;9.306;2023-06-22T13:52:24;25.10;91.00
8707;DHT22;4390;49.302;9.306;2023-06-22T13:54:51;25.00;91.20
8707;DHT22;4390;49.302;9.306;2023-06-22T13:57:17;25.00;91.20
8707;DHT22;4390;49.302;9.306;2023-06-22T13:59:44;25.00;91.20
8707;DHT22;4390;49.302;9.306;2023-06-22T14:02:11;25.00;91.10
8707;DHT22;4390;49.302;9.306;2023-06-22T14:04:38;25.00;91.30
8707;DHT22;4390;49.302;9.306;2023-06-22T14:07:05;25.00;91.20
8707;DHT22;4390;49.302;9.306;2023-06-22T14:09:32;25.00;91.40
8707;DHT22;4390;49.302;9.306;2023-06-22T14:12:03;25.00;91.50
8707;DHT22;4390;49.302;9.306;2023-06-22T14:14:31;25.00;91.50
8707;DHT22;4390;49.302;9.306;2023-06-22T14:16:57;25.00;91.50
8707;DHT22;4390;49.302;9.306;2023-06-22T14:19:24;25.10;91.40
8707;DHT22;4390;49.302;9.306;2023-06-22T14:21:51;25.00;91.60
8707;DHT22;4390;49.302;9.306;2023-06-22T14:24:18;24.90;91.70
8707;DHT22;4390;49.302;9.306;2023-06-22T14:26:47;24.80;91.70
8707;DHT22;4390;49.302;9.306;2023-06-22T14:29:13;24.80;91.60
8707;DHT22;4390;49.302;9.306;2023-06-22T14:31:40;24.80;91.60
8707;DHT22;4390;49.302;9.306;2023-06-22T14:34:07;24.80;91.50
8707;DHT22;4390;49.302;9.306;2023-06-22T14:36:34;24.90;91.30
8707;DHT22;4390;49.302;9.306;2023-06-22T14:39:00;24.90;91.40
8707;DHT22;4390;49.302;9.306;2023-06-22T14:41:27;24.90;91.40
8707;DHT22;4390;49.302;9.306;2023-06-22T14:43:54;24.80;91.40
8707;DHT22;4390;49.302;9.306;2023-06-22T14:46:21;24.80;91.10
8707;DHT22;4390;49.302;9.306;2023-06-22T14:48:48;24.80;91.00
8707;DHT22;4390;49.302;9.306;2023-06-22T14:51:15;24.80;91.00
8707;DHT22;4390;49.302;9.306;2023-06-22T14:53:45;24.90;91.00
8707;DHT22;4390;49.302;9.306;2023-06-22T14:56:12;24.80;91.10
8707;DHT22;4390;49.302;9.306;2023-06-22T14:58:41;24.80;91.10
8707;DHT22;4390;49.302;9.306;2023-06-22T15:01:12;24.80;91.20
8707;DHT22;4390;49.302;9.306;2023-06-22T15:03:39;24.80;91.30
8707;DHT22;4390;49.302;9.306;2023-06-22T15:06:06;24.80;91.30
8707;DHT22;4390;49.302;9.306;2023-06-22T15:08:33;24.90;91.30
8707;DHT22;4390;49.302;9.306;2023-06-22T15:11:00;24.90;91.40
8707;DHT22;4390;49.302;9.306;2023-06-22T15:13:29;24.80;91.50
8707;DHT22;4390;49.302;9.306;2023-06-22T15:15:58;24.80;91.60
8707;DHT22;4390;49.302;9.306;2023-06-22T15:18:25;24.90;91.60
8707;DHT22;4390;49.302;9.306;2023-06-22T15:20:53;24.80;91.50
8707;DHT22;4390;49.302;9.306;2023-06-22T15:23:20;24.80;91.50
8707;DHT22;4390;49.302;9.306;2023-06-22T15:25:47;24.80;91.60
8707;DHT22;4390;49.302;9.306;2023-06-22T15:28:14;24.90;91.70
8707;DHT22;4390;49.302;9.306;2023-06-22T15:30:40;24.90;91.90
8707;DHT22;4390;49.302;9.306;2023-06-22T15:33:07;24.90;92.00
8707;DHT22;4390;49.302;9.306;2023-06-22T15:35:34;24.90;92.20
8707;DHT22;4390;49.302;9.306;2023-06-22T15:38:01;24.90;92.60
8707;DHT22;4390;49.302;9.306;2023-06-22T15:40:28;24.90;93.00
8707;DHT22;4390;49.302;9.306;2023-06-22T15:42:55;24.90;93.10
8707;DHT22;4390;49.302;9.306;2023-06-22T15:45:22;24.90;92.80
8707;DHT22;4390;49.302;9.306;2023-06-22T15:47:49;24.90;92.50
8707;DHT22;4390;49.302;9.306;2023-06-22T15:50:16;24.90;92.30
8707;DHT22;4390;49.302;9.306;2023-06-22T15:52:43;24.90;91.80
8707;DHT22;4390;49.302;9.306;2023-06-22T15:55:14;25.00;91.60
8707;DHT22;4390;49.302;9.306;2023-06-22T15:57:41;25.10;91.40
8707;DHT22;4390;49.302;9.306;2023-06-22T16:00:17;25.00;91.40
8707;DHT22;4390;49.302;9.306;2023-06-22T16:02:45;25.10;91.30
8707;DHT22;4390;49.302;9.306;2023-06-22T16:05:13;25.20;91.10
8707;DHT22;4390;49.302;9.306;2023-06-22T16:07:40;25.20;91.00
8707;DHT22;4390;49.302;9.306;2023-06-22T16:10:07;25.20;90.90
8707;DHT22;4390;49.302;9.306;2023-06-22T16:12:35;25.10;90.90